Time;durP1;ratioP1;P1;durP2;ratioP2;P2;SDS_P1;SDS_P2;PMS_P1;PMS_P2;Temp;Humidity;BMP_temperature;BMP_pressure;BME280_temperature;BME280_humidity;BME280_pressure;Samples;Min_cycle;Max_cycle;Signal;HPM_P1;HPM_P2
2022/07/19 00:00:07;;;;;;;30.95;15.05;;;;;;;17.83;85.01;101701.53;5132742;28;20027;-45
2022/07/19 00:02:33;;;;;;;24.73;14.80;;;;;;;17.80;84.14;101694.56;5133715;28;20105;-44
2022/07/19 00:04:58;;;;;;;26.45;15.15;;;;;;;17.78;84.36;101701.50;5133439;28;20111;-45
2022/07/19 00:07:24;;;;;;;24.10;15.70;;;;;;;17.72;84.04;101697.06;5132738;28;20023;-43
2022/07/19 00:09:49;;;;;;;25.42;15.23;;;;;;;17.64;84.46;101696.09;5133540;28;20046;-44
2022/07/19 00:12:14;;;;;;;27.73;17.08;;;;;;;17.55;84.83;101691.63;5132106;28;20525;-45
2022/07/19 00:14:40;;;;;;;26.77;17.27;;;;;;;17.50;85.26;101688.06;5133423;28;20027;-44
2022/07/19 00:17:05;;;;;;;30.20;18.02;;;;;;;17.49;85.03;101688.91;5133444;28;20049;-44
2022/07/19 00:19:30;;;;;;;35.47;20.27;;;;;;;17.38;85.67;101688.78;5132490;28;20050;-44
2022/07/19 00:21:55;;;;;;;27.77;19.33;;;;;;;17.29;85.58;101683.44;5133370;28;20407;-44
2022/07/19 00:24:21;;;;;;;28.92;19.52;;;;;;;17.28;85.79;101689.50;5133299;28;20455;-45
2022/07/19 00:26:46;;;;;;;29.50;19.52;;;;;;;17.26;85.53;101685.97;5132839;28;20023;-45
2022/07/19 00:29:11;;;;;;;34.63;20.05;;;;;;;17.20;86.02;101685.91;5133378;28;20030;-43
2022/07/19 00:31:37;;;;;;;34.80;21.15;;;;;;;17.13;86.45;101684.91;5133269;28;20023;-44
2022/07/19 00:34:02;;;;;;;32.22;20.70;;;;;;;17.09;86.29;101677.91;5132449;28;20079;-43
2022/07/19 00:36:27;;;;;;;39.63;23.13;;;;;;;17.06;86.35;101683.94;5133200;28;20025;-43
2022/07/19 00:38:52;;;;;;;35.13;21.98;;;;;;;17.04;85.82;101682.16;5133030;28;20034;-44
2022/07/19 00:41:18;;;;;;;30.58;21.20;;;;;;;16.98;86.35;101676.84;5133970;27;20076;-45
2022/07/19 00:43:43;;;;;;;35.47;22.50;;;;;;;16.90;87.05;101681.88;5137316;27;20027;-45
2022/07/19 00:46:16;;;;;;;34.90;23.10;;;;;;;16.88;86.87;101678.41;5136782;27;20023;-45
2022/07/19 00:48:42;;;;;;;34.00;22.40;;;;;;;16.86;86.68;101669.66;5136205;27;20035;-44
2022/07/19 00:51:08;;;;;;;37.13;23.75;;;;;;;16.91;87.33;101674.16;5136829;27;20019;-46
2022/07/19 00:53:36;;;;;;;32.05;22.60;;;;;;;16.89;86.75;101674.94;5136668;27;20106;-44
2022/07/19 00:56:04;;;;;;;35.78;23.42;;;;;;;16.88;86.42;101673.19;5136099;27;20031;-47
2022/07/19 00:58:30;;;;;;;;;;;;;;;16.97;83.38;101673.38;5137185;27;20034;-45
2022/07/19 01:00:55;;;;;;;38.08;26.60;;;;;;;16.97;86.42;101675.09;5136758;27;19911;-44
2022/07/19 01:03:20;;;;;;;38.55;24.35;;;;;;;16.93;85.61;101668.97;5135603;27;20443;-48
2022/07/19 01:05:46;;;;;;;42.15;24.30;;;;;;;16.89;85.61;101665.41;5136501;27;20035;-46
2022/07/19 01:08:12;;;;;;;35.22;23.48;;;;;;;16.83;85.65;101673.09;5136164;27;20425;-45
2022/07/19 01:10:37;;;;;;;35.63;26.10;;;;;;;16.78;86.62;101662.63;5135484;27;20057;-43
2022/07/19 01:13:02;;;;;;;38.05;25.85;;;;;;;16.72;86.58;101672.94;5136542;27;20114;-43
2022/07/19 01:15:28;;;;;;;35.45;26.25;;;;;;;16.65;87.27;101671.06;5135656;27;20015;-45
2022/07/19 01:17:53;;;;;;;38.28;25.73;;;;;;;16.57;87.63;101668.31;5136568;27;20023;-45
2022/07/19 01:20:23;;;;;;;41.75;28.00;;;;;;;16.52;87.88;101674.31;5136155;27;20481;-44
2022/07/19 01:22:48;;;;;;;38.05;26.30;;;;;;;16.43;87.88;101670.66;5135664;27;20031;-43
2022/07/19 01:25:15;;;;;;;42.83;29.88;;;;;;;16.36;88.36;101673.13;5135983;27;20098;-46
2022/07/19 01:27:43;;;;;;;40.83;28.60;;;;;;;16.39;88.00;101668.84;5136363;27;20026;-45
2022/07/19 01:30:14;;;;;;;38.55;27.77;;;;;;;16.35;87.43;101672.25;5135453;27;20354;-45
2022/07/19 01:32:39;;;;;;;37.78;29.55;;;;;;;16.31;88.31;101678.25;5136006;27;20495;-44
2022/07/19 01:35:07;;;;;;;46.13;30.67;;;;;;;16.26;88.20;101678.16;5135858;27;20478;-44
2022/07/19 01:37:33;;;;;;;39.28;30.70;;;;;;;16.22;88.60;101675.47;5135298;27;20115;-45
2022/07/19 01:39:58;;;;;;;39.75;30.25;;;;;;;16.17;88.19;101677.09;5136003;27;20046;-45
2022/07/19 01:42:24;;;;;;;40.55;28.70;;;;;;;16.11;89.02;101678.75;5135978;27;20075;-43
2022/07/19 01:44:50;;;;;;;37.30;29.48;;;;;;;16.02;89.31;101675.94;5135154;27;20136;-44
2022/07/19 01:47:15;;;;;;;38.78;30.15;;;;;;;15.98;89.80;101671.53;5135523;27;20444;-45
2022/07/19 01:49:40;;;;;;;50.95;32.13;;;;;;;15.96;89.80;101670.63;5135752;27;20023;-45
2022/07/19 01:52:05;;;;;;;45.80;32.25;;;;;;;15.93;90.28;101666.25;5134707;27;20530;-44
2022/07/19 01:54:31;;;;;;;44.03;33.60;;;;;;;15.87;90.47;101676.50;5135268;27;20036;-43
2022/07/19 01:56:56;;;;;;;46.03;33.72;;;;;;;15.80;90.92;101675.47;5135586;27;20100;-44
2022/07/19 01:59:21;;;;;;;46.08;33.35;;;;;;;15.74;90.84;101671.88;5134710;27;20053;-43
2022/07/19 02:01:46;;;;;;;45.33;34.08;;;;;;;15.71;91.02;101667.50;5135542;27;20083;-44
2022/07/19 02:04:12;;;;;;;44.97;34.53;;;;;;;15.68;91.32;101677.78;5135116;27;20107;-45
2022/07/19 02:06:37;;;;;;;42.72;34.00;;;;;;;15.69;91.59;101674.34;5134662;27;20031;-44
2022/07/19 02:09:02;;;;;;;46.45;34.50;;;;;;;15.68;91.06;101666.53;5135439;27;20017;-43
2022/07/19 02:11:34;;;;;;;42.67;33.80;;;;;;;15.71;91.22;101672.69;5134970;27;20498;-43
2022/07/19 02:14:00;;;;;;;40.85;32.63;;;;;;;15.70;90.96;101668.31;5134314;27;20072;-43
2022/07/19 02:16:25;;;;;;;44.00;33.47;;;;;;;15.69;91.63;101663.97;5135122;27;20027;-43
2022/07/19 02:18:50;;;;;;;45.58;33.58;;;;;;;15.69;91.66;101663.97;5134373;27;20402;-43
2022/07/19 02:21:17;;;;;;;46.00;34.15;;;;;;;15.69;91.39;101658.78;5134849;27;20031;-43
2022/07/19 02:23:42;;;;;;;41.20;32.75;;;;;;;15.64;91.20;101657.78;5134980;27;20486;-44
2022/07/19 02:26:07;;;;;;;46.45;34.03;;;;;;;15.62;91.74;101659.47;5134296;27;20034;-44
2022/07/19 02:28:32;;;;;;;46.35;34.97;;;;;;;15.57;92.17;101655.88;5134974;27;20035;-45
2022/07/19 02:30:58;;;;;;;44.35;35.20;;;;;;;15.53;92.46;101651.47;5134738;27;20031;-44
2022/07/19 02:33:23;;;;;;;41.15;34.15;;;;;;;15.51;92.09;101648.00;5133970;27;20034;-43
2022/07/19 02:35:48;;;;;;;49.17;36.53;;;;;;;15.55;92.74;101649.81;5135064;27;20025;-44
2022/07/19 02:38:13;;;;;;;47.97;35.10;;;;;;;15.59;93.11;101647.28;5134854;27;20030;-43
2022/07/19 02:40:39;;;;;;;41.85;33.72;;;;;;;15.60;92.72;101648.19;5133908;27;20027;-43
2022/07/19 02:43:04;;;;;;;46.30;34.00;;;;;;;15.55;92.40;101644.59;5134721;27;20015;-44
2022/07/19 02:45:29;;;;;;;44.75;34.13;;;;;;;15.49;92.93;101645.31;5134480;27;20063;-43
2022/07/19 02:47:54;;;;;;;47.92;36.38;;;;;;;15.46;93.12;101648.75;5133823;27;20030;-44
2022/07/19 02:50:20;;;;;;;47.45;34.33;;;;;;;15.44;92.91;101645.25;5134246;27;20023;-47
2022/07/19 02:52:45;;;;;;;40.72;33.95;;;;;;;15.42;92.59;101648.66;5134324;27;20080;-45
2022/07/19 02:55:10;;;;;;;43.67;33.47;;;;;;;15.38;92.70;101644.25;5133583;27;20026;-44
2022/07/19 02:57:36;;;;;;;47.55;35.53;;;;;;;15.32;93.15;101644.97;5134581;27;20027;-45
2022/07/19 03:00:04;;;;;;;45.47;38.03;;;;;;;15.25;93.72;101646.53;5134354;27;20382;-44
2022/07/19 03:02:29;;;;;;;48.53;38.78;;;;;;;15.23;93.90;101642.16;5133496;27;20027;-46
2022/07/19 03:04:54;;;;;;;59.35;37.97;;;;;;;15.22;93.47;101640.41;5133117;27;20037;-44
2022/07/19 03:07:19;;;;;;;49.33;37.08;;;;;;;15.18;93.32;101643.75;5134357;27;20027;-45
2022/07/19 03:09:45;;;;;;;47.30;38.22;;;;;;;15.13;93.50;101636.75;5133372;27;20027;-44
2022/07/19 03:12:11;;;;;;;45.03;37.72;;;;;;;15.13;93.71;101636.75;5133770;27;20043;-43
2022/07/19 03:14:36;;;;;;;50.25;37.20;;;;;;;15.13;93.16;101630.66;5134163;27;20027;-46
2022/07/19 03:17:01;;;;;;;44.17;38.00;;;;;;;15.21;93.72;101633.44;5133342;27;20066;-44
2022/07/19 03:19:27;;;;;;;46.10;38.35;;;;;;;15.18;93.06;101633.38;5133965;27;20031;-43
2022/07/19 03:21:55;;;;;;;50.50;39.28;;;;;;;15.21;92.64;101625.66;5133870;27;20035;-47
2022/07/19 03:24:21;;;;;;;49.03;40.28;;;;;;;15.25;93.26;101624.91;5133236;27;20167;-43
2022/07/19 03:26:46;;;;;;;47.97;38.55;;;;;;;15.27;93.22;101626.69;5133795;27;20098;-44
2022/07/19 03:29:11;;;;;;;52.83;39.50;;;;;;;15.28;92.28;101625.81;5132873;27;20027;-43
2022/07/19 03:31:37;;;;;;;42.42;35.53;;;;;;;15.26;91.54;101624.03;5133753;27;20031;-45
2022/07/19 03:34:03;;;;;;;51.45;40.35;;;;;;;15.21;92.04;101625.66;5133645;27;20107;-43
2022/07/19 03:36:28;;;;;;;50.85;39.97;;;;;;;15.21;91.92;101623.94;5133103;27;20416;-43
2022/07/19 03:38:53;;;;;;;49.25;38.65;;;;;;;15.20;91.74;101629.13;5133831;27;20488;-44
2022/07/19 03:41:19;;;;;;;45.03;38.88;;;;;;;15.21;92.16;101617.84;5133495;27;20061;-44
2022/07/19 03:43:44;;;;;;;49.67;40.08;;;;;;;15.27;92.70;101623.19;5133149;28;20027;-48
2022/07/19 03:46:09;;;;;;;55.28;40.85;;;;;;;15.28;92.35;101627.56;5133743;28;20026;-44
2022/07/19 03:48:34;;;;;;;42.03;35.88;;;;;;;15.27;91.86;101620.59;5133534;28;20030;-43
2022/07/19 03:51:00;;;;;;;61.53;39.45;;;;;;;15.23;91.93;101623.97;5132813;28;20023;-45
2022/07/19 03:53:25;;;;;;;44.80;39.50;;;;;;;15.24;92.01;101620.53;5133410;28;20467;-47
2022/07/19 03:55:50;;;;;;;50.38;37.78;;;;;;;15.24;91.34;101623.13;5133846;28;20023;-46
2022/07/19 03:58:16;;;;;;;48.90;39.35;;;;;;;15.27;91.78;101625.78;5132831;28;20019;-46
2022/07/19 04:00:41;;;;;;;45.28;37.70;;;;;;;15.25;91.13;101624.91;5133669;28;20030;-44
2022/07/19 04:03:06;;;;;;;42.78;37.22;;;;;;;15.23;91.47;101626.56;5133417;28;20382;-43
2022/07/19 04:05:31;;;;;;;46.10;38.17;;;;;;;15.20;92.10;101631.72;5132891;28;20026;-43
2022/07/19 04:07:57;;;;;;;50.53;38.40;;;;;;;15.17;91.88;101631.63;5133542;28;20023;-44
2022/07/19 04:10:22;;;;;;;50.45;39.03;;;;;;;15.14;91.69;101637.63;5133291;28;20421;-44
2022/07/19 04:12:48;;;;;;;44.95;37.53;;;;;;;15.13;92.02;101636.75;5132825;28;20470;-43
2022/07/19 04:15:13;;;;;;;51.10;38.00;;;;;;;15.12;91.96;101629.81;5133256;27;20023;-44
2022/07/19 04:17:38;;;;;;;49.47;40.10;;;;;;;15.10;92.40;101634.06;5137136;27;20015;-43
2022/07/19 04:20:05;;;;;;;53.88;41.42;;;;;;;15.08;92.71;101633.16;5136798;27;20023;-44
2022/07/19 04:22:31;;;;;;;83.47;46.10;;;;;;;15.06;92.87;101631.38;5137154;27;20470;-45
2022/07/19 04:24:56;;;;;;;76.53;44.78;;;;;;;15.06;93.30;101634.84;5137319;27;20037;-43
2022/07/19 04:27:21;;;;;;;67.38;45.53;;;;;;;15.14;93.91;101638.50;5136457;27;20027;-43
2022/07/19 04:29:47;;;;;;;67.03;47.42;;;;;;;15.27;93.60;101633.59;5137191;27;20054;-44
2022/07/19 04:32:12;;;;;;;62.10;47.92;;;;;;;15.40;92.60;101625.25;5136777;27;20035;-44
2022/07/19 04:34:38;;;;;;;57.03;42.30;;;;;;;15.38;92.05;101624.31;5136667;27;20042;-43
2022/07/19 04:37:03;;;;;;;56.55;43.03;;;;;;;15.41;92.30;101632.16;5137171;27;20019;-44
2022/07/19 04:39:28;;;;;;;57.42;45.00;;;;;;;15.50;91.39;101628.03;5136226;27;20023;-44
2022/07/19 04:41:53;;;;;;;56.65;43.10;;;;;;;15.53;91.24;101631.59;5137009;27;20041;-44
2022/07/19 04:44:19;;;;;;;59.72;44.33;;;;;;;15.53;92.17;101631.59;5136839;27;20068;-45
2022/07/19 04:46:44;;;;;;;58.13;45.65;;;;;;;15.55;91.52;101624.69;5136089;27;20408;-43
2022/07/19 04:49:09;;;;;;;54.00;45.08;;;;;;;15.64;91.17;101630.06;5137019;27;20463;-45
2022/07/19 04:51:34;;;;;;;57.20;48.17;;;;;;;15.71;89.81;101631.09;5136811;27;20027;-44
2022/07/19 04:54:00;;;;;;;58.97;44.58;;;;;;;15.83;90.58;101634.81;5136098;27;20442;-45
2022/07/19 04:56:25;;;;;;;60.92;47.95;;;;;;;15.91;89.40;101628.06;5136487;27;20027;-44
2022/07/19 04:58:50;;;;;;;55.80;46.42;;;;;;;16.00;89.31;101632.53;5136721;27;20467;-44
2022/07/19 05:01:16;;;;;;;54.88;46.55;;;;;;;16.07;88.54;101624.91;5135663;27;20518;-43
2022/07/19 05:03:41;;;;;;;57.95;45.00;;;;;;;16.15;89.35;101630.25;5136728;27;20023;-45
2022/07/19 05:06:06;;;;;;;64.50;50.70;;;;;;;16.27;88.03;101627.03;5136707;27;20032;-45
2022/07/19 05:08:32;;;;;;;60.65;49.00;;;;;;;16.34;88.16;101618.47;5135744;27;20390;-46
2022/07/19 05:10:58;;;;;;;60.35;49.78;;;;;;;16.39;88.63;101622.03;5136304;27;20141;-44
2022/07/19 05:13:23;;;;;;;64.70;50.15;;;;;;;16.46;88.36;101623.91;5136281;27;20094;-48
2022/07/19 05:15:48;;;;;;;62.10;49.78;;;;;;;16.53;91.41;101631.81;5135650;27;20015;-44
2022/07/19 05:18:14;;;;;;;58.90;48.47;;;;;;;16.62;90.06;101629.38;5135952;27;20035;-47
2022/07/19 05:20:39;;;;;;;57.65;47.78;;;;;;;16.70;88.05;101625.16;5136440;27;20355;-44
2022/07/19 05:23:04;;;;;;;60.03;50.05;;;;;;;16.79;89.21;101622.72;5135541;27;20023;-46
2022/07/19 05:25:29;;;;;;;60.28;48.45;;;;;;;16.93;86.80;101624.69;5136071;27;20047;-43
2022/07/19 05:27:56;;;;;;;59.22;46.85;;;;;;;17.04;88.02;101628.38;5134900;27;20489;-43
2022/07/19 05:30:22;;;;;;;53.30;46.40;;;;;;;17.17;88.80;101628.53;5135228;27;20076;-42
2022/07/19 05:32:47;;;;;;;67.18;50.53;;;;;;;17.26;89.46;101629.56;5135934;27;20023;-43
2022/07/19 05:35:12;;;;;;;62.80;50.95;;;;;;;17.36;89.62;101630.53;5135940;27;20106;-44
2022/07/19 05:37:38;;;;;;;62.78;51.15;;;;;;;17.48;89.64;101628.97;5135183;27;20023;-45
2022/07/19 05:40:04;;;;;;;66.22;54.17;;;;;;;17.58;90.48;101631.72;5136019;27;20470;-44
2022/07/19 05:42:29;;;;;;;63.17;53.63;;;;;;;17.70;90.58;101628.41;5135763;27;20034;-47
2022/07/19 05:44:55;;;;;;;67.55;54.28;;;;;;;17.81;88.87;101635.47;5134933;27;20027;-43
2022/07/19 05:47:20;;;;;;;70.20;52.90;;;;;;;17.90;88.74;101635.59;5135544;27;20023;-43
2022/07/19 05:49:45;;;;;;;67.07;49.65;;;;;;;18.01;83.56;101634.03;5134954;27;20359;-46
2022/07/19 05:52:11;;;;;;;61.58;49.90;;;;;;;18.12;86.62;101628.03;5135579;27;20038;-43
2022/07/19 05:54:36;;;;;;;62.50;47.45;;;;;;;18.26;80.06;101636.88;5135840;27;20027;-43
2022/07/19 05:57:01;;;;;;;63.08;47.38;;;;;;;18.45;76.64;101647.50;5134590;27;20120;-46
2022/07/19 05:59:26;;;;;;;61.70;46.13;;;;;;;18.61;76.62;101638.97;5135404;27;20076;-43
2022/07/19 06:01:52;;;;;;;65.15;47.28;;;;;;;18.78;75.56;101641.72;5135318;27;20023;-45
2022/07/19 06:04:17;;;;;;;63.60;45.42;;;;;;;18.92;76.04;101652.31;5134795;27;20573;-43
2022/07/19 06:06:43;;;;;;;60.53;44.22;;;;;;;19.13;72.03;101637.66;5135560;27;20027;-44
2022/07/19 06:09:11;;;;;;;69.47;44.75;;;;;;;19.31;71.35;101640.38;5135431;27;20021;-47
2022/07/19 06:11:37;;;;;;;61.35;45.00;;;;;;;19.46;70.75;101646.53;5134366;27;20047;-43
2022/07/19 06:14:02;;;;;;;66.82;45.97;;;;;;;19.57;70.22;101639.63;5135225;27;20025;-43
2022/07/19 06:16:28;;;;;;;60.08;45.63;;;;;;;19.72;70.24;101641.47;5135046;27;20466;-44
2022/07/19 06:18:53;;;;;;;71.13;47.45;;;;;;;19.86;69.77;101646.78;5134534;27;20022;-43
2022/07/19 06:21:20;;;;;;;70.68;46.25;;;;;;;19.98;69.66;101648.56;5134840;27;20068;-44
2022/07/19 06:23:46;;;;;;;64.27;47.73;;;;;;;20.13;69.43;101648.63;5135242;27;20030;-46
2022/07/19 06:26:12;;;;;;;73.60;43.83;;;;;;;20.32;68.42;101644.31;5134133;27;20027;-45
2022/07/19 06:28:38;;;;;;;59.35;42.78;;;;;;;20.52;66.19;101639.09;5134923;27;20023;-44
2022/07/19 06:31:04;;;;;;;52.08;38.70;;;;;;;20.71;65.27;101645.25;5134564;27;20455;-44
2022/07/19 06:33:29;;;;;;;56.22;38.33;;;;;;;20.87;64.44;101646.09;5133936;27;20031;-45
2022/07/19 06:35:55;;;;;;;53.33;35.65;;;;;;;21.05;63.99;101639.09;5134611;27;20019;-44
2022/07/19 06:38:21;;;;;;;48.92;33.72;;;;;;;21.20;62.05;101638.19;5134408;27;20076;-43
2022/07/19 06:40:46;;;;;;;59.65;32.88;;;;;;;21.36;62.15;101639.91;5133998;27;20030;-49
2022/07/19 06:43:11;;;;;;;44.35;31.52;;;;;;;21.52;61.61;101637.25;5134454;27;20043;-45
2022/07/19 06:45:39;;;;;;;52.72;32.33;;;;;;;21.68;60.48;101631.09;5134633;27;20374;-47
2022/07/19 06:48:05;;;;;;;45.40;29.55;;;;;;;21.85;60.09;101632.78;5133928;27;20087;-44
2022/07/19 06:50:30;;;;;;;55.47;28.05;;;;;;;22.03;58.61;101632.66;5134470;27;20252;-44
2022/07/19 06:52:55;;;;;;;41.58;25.17;;;;;;;22.18;58.47;101641.34;5134414;27;20027;-42
2022/07/19 06:55:21;;;;;;;55.08;26.13;;;;;;;22.34;58.08;101632.47;5133639;27;20027;-43
2022/07/19 06:57:46;;;;;;;41.83;23.65;;;;;;;22.50;56.26;101637.66;5134506;27;20100;-47
2022/07/19 07:00:13;;;;;;;43.35;22.25;;;;;;;22.66;56.15;101628.78;5133369;27;20019;-44
2022/07/19 07:02:41;;;;;;;38.00;22.53;;;;;;;22.83;56.14;101635.66;5134646;27;20030;-45
2022/07/19 07:05:08;;;;;;;38.90;21.17;;;;;;;23.00;56.78;101631.09;5134232;27;20378;-44
2022/07/19 07:07:34;;;;;;;34.97;19.83;;;;;;;23.13;55.27;101636.25;5133548;27;20413;-43
2022/07/19 07:10:01;;;;;;;38.03;18.63;;;;;;;23.29;55.49;101640.50;5134274;27;20489;-44
2022/07/19 07:12:27;;;;;;;;;;;;;;;23.34;58.24;101638.69;5134207;27;20397;-45
2022/07/19 07:14:52;;;;;;;31.35;17.08;;;;;;;23.56;53.50;101622.63;5133268;27;20422;-45
2022/07/19 07:17:17;;;;;;;33.80;17.30;;;;;;;23.73;52.10;101630.31;5133984;27;20019;-44
2022/07/19 07:19:42;;;;;;;31.53;16.17;;;;;;;23.89;52.04;101628.34;5134226;27;20037;-46
2022/07/19 07:22:08;;;;;;;36.67;14.98;;;;;;;24.06;52.92;101632.56;5133283;27;20353;-48
2022/07/19 07:24:33;;;;;;;32.03;14.80;;;;;;;24.25;53.68;101626.13;5133837;27;20033;-46
2022/07/19 07:26:58;;;;;;;29.08;14.80;;;;;;;24.39;51.69;101625.03;5133954;27;20841;-47
2022/07/19 07:29:23;;;;;;;32.15;15.73;;;;;;;24.50;51.19;101623.09;5133098;27;20034;-47
2022/07/19 07:31:50;;;;;;;30.87;13.63;;;;;;;24.62;51.95;101622.91;5133894;27;20083;-45
2022/07/19 07:34:15;;;;;;;25.48;12.70;;;;;;;24.72;52.05;101625.41;5133799;27;20273;-47
2022/07/19 07:36:41;;;;;;;27.40;12.43;;;;;;;24.82;52.68;101622.56;5133307;27;20022;-44
2022/07/19 07:39:06;;;;;;;25.10;11.55;;;;;;;24.99;50.45;101622.25;5133766;27;20022;-45
2022/07/19 07:41:31;;;;;;;28.23;11.53;;;;;;;25.19;50.22;101620.16;5133741;27;20047;-48
2022/07/19 07:43:56;;;;;;;26.13;10.93;;;;;;;25.29;51.26;101617.31;5132774;27;20273;-48
2022/07/19 07:46:22;;;;;;;22.97;10.77;;;;;;;25.48;48.88;101619.63;5133837;28;20351;-46
2022/07/19 07:48:47;;;;;;;25.05;11.82;;;;;;;25.61;48.25;101607.88;5133917;28;20265;-46
2022/07/19 07:51:12;;;;;;;25.17;10.48;;;;;;;25.78;48.21;101610.19;5134154;27;20046;-45
2022/07/19 07:53:37;;;;;;;22.40;9.23;;;;;;;25.88;48.52;101616.13;5138109;27;20015;-46
2022/07/19 07:56:03;;;;;;;20.45;8.80;;;;;;;26.03;48.84;101607.00;5138285;27;20290;-50
2022/07/19 07:58:28;;;;;;;20.50;9.30;;;;;;;26.24;49.20;101605.63;5136942;27;20022;-46
2022/07/19 08:00:54;;;;;;;21.33;8.43;;;;;;;26.35;48.48;101607.16;5137693;27;20110;-46
2022/07/19 08:03:19;;;;;;;25.60;8.20;;;;;;;26.51;47.77;101605.88;5137286;27;20609;-45
2022/07/19 08:05:47;;;;;;;19.63;8.27;;;;;;;26.65;45.99;101600.22;5137729;27;20269;-45
2022/07/19 08:08:16;;;;;;;20.70;7.97;;;;;;;26.81;45.06;101607.81;5137495;27;20029;-45
2022/07/19 08:10:42;;;;;;;17.67;7.07;;;;;;;26.97;44.37;101605.59;5136733;27;20521;-44
2022/07/19 08:13:08;;;;;;;14.98;6.53;;;;;;;27.07;42.12;101604.44;5137346;27;20043;-47
2022/07/19 08:15:38;;;;;;;24.85;7.72;;;;;;;27.24;45.60;101604.84;5137602;27;20015;-48
2022/07/19 08:18:04;;;;;;;17.90;7.43;;;;;;;27.34;42.22;101597.50;5136718;27;20046;-49
2022/07/19 08:20:29;;;;;;;20.02;7.07;;;;;;;27.44;40.99;101599.00;5137592;27;20026;-46
2022/07/19 08:22:55;;;;;;;19.88;7.00;;;;;;;27.58;43.21;101601.25;5137478;27;20023;-45
2022/07/19 08:25:20;;;;;;;20.35;6.93;;;;;;;27.74;42.37;101603.44;5136503;27;20424;-46
2022/07/19 08:27:45;;;;;;;14.15;6.55;;;;;;;27.87;43.05;101604.78;5137336;27;20024;-45
2022/07/19 08:30:11;;;;;;;14.32;6.57;;;;;;;28.01;42.03;101596.41;5137239;27;20030;-45
2022/07/19 08:32:38;;;;;;;19.27;6.93;;;;;;;28.12;40.72;101601.41;5136580;27;20045;-46
2022/07/19 08:35:05;;;;;;;16.80;6.38;;;;;;;28.22;42.83;101592.19;5137269;27;20026;-47
2022/07/19 08:37:30;;;;;;;20.67;5.95;;;;;;;28.35;41.60;101594.47;5136980;27;20434;-45
2022/07/19 08:39:56;;;;;;;15.70;5.78;;;;;;;28.51;40.98;101589.50;5136322;27;20493;-42
2022/07/19 08:42:21;;;;;;;14.25;6.25;;;;;;;28.65;41.70;101587.25;5136912;27;20027;-45
2022/07/19 08:44:54;;;;;;;19.05;6.50;;;;;;;28.76;38.43;101588.72;5137274;27;20080;-44
2022/07/19 08:47:20;;;;;;;15.43;6.20;;;;;;;28.84;39.15;101586.63;5136575;27;20039;-49
2022/07/19 08:49:46;;;;;;;17.77;6.05;;;;;;;29.01;38.51;101592.22;5137117;27;20026;-46
2022/07/19 08:52:12;;;;;;;13.98;5.75;;;;;;;29.10;39.94;101593.66;5136688;27;20027;-45
2022/07/19 08:54:38;;;;;;;16.17;6.35;;;;;;;29.34;39.29;101585.75;5136036;27;20027;-48
2022/07/19 08:59:47;;;;;;;20.40;6.10;;;;;;;29.57;40.37;101582.22;5136021;27;20042;-45
2022/07/19 09:02:13;;;;;;;10.77;5.00;;;;;;;29.72;41.05;101578.06;5136546;27;20386;-49
2022/07/19 09:04:38;;;;;;;15.05;5.32;;;;;;;29.81;42.76;101585.69;5136668;27;20055;-45
2022/07/19 09:07:04;;;;;;;14.27;5.97;;;;;;;30.02;38.77;101583.13;5135812;27;20030;-44
2022/07/19 09:09:32;;;;;;;11.13;6.10;;;;;;;30.10;36.50;101580.13;5136291;27;20114;-45
2022/07/19 09:11:58;;;;;;;21.00;6.70;;;;;;;30.19;35.44;101577.97;5136198;27;20300;-44
2022/07/19 09:14:25;;;;;;;15.60;6.15;;;;;;;30.38;36.28;101579.84;5135693;27;20027;-48
2022/07/19 09:16:53;;;;;;;18.35;6.43;;;;;;;30.49;35.79;101572.31;5136654;27;20035;-46
2022/07/19 09:19:19;;;;;;;16.55;6.82;;;;;;;30.60;35.55;101569.22;5136275;27;20039;-46
2022/07/19 09:21:55;;;;;;;16.10;5.68;;;;;;;30.74;36.76;101578.38;5135576;27;20023;-43
2022/07/19 09:24:21;;;;;;;10.93;5.57;;;;;;;30.86;34.60;101575.19;5136242;27;20084;-48
2022/07/19 09:26:58;;;;;;;14.65;5.40;;;;;;;31.01;36.77;101569.19;5136177;27;20496;-48
2022/07/19 09:29:23;;;;;;;16.00;5.90;;;;;;;31.16;35.28;101570.28;5135334;27;20023;-48
2022/07/19 09:32:21;;;;;;;12.35;5.82;;;;;;;31.25;35.69;101569.00;5136072;27;20037;-48
2022/07/19 09:35:05;;;;;;;15.23;5.75;;;;;;;31.41;35.28;101570.97;5079333;27;20031;-44
2022/07/19 09:37:32;;;;;;;11.38;5.90;;;;;;;31.49;34.03;101568.78;5136068;27;20034;-45
2022/07/19 09:40:00;;;;;;;14.55;5.47;;;;;;;31.67;33.73;101569.75;5135906;27;20027;-45
2022/07/19 09:42:43;;;;;;;13.88;5.97;;;;;;;31.75;34.49;101564.03;5135064;27;20027;-48
2022/07/19 09:45:13;;;;;;;15.77;5.40;;;;;;;31.93;35.11;101551.63;5136004;27;20019;-47
2022/07/19 09:47:44;;;;;;;16.00;5.72;;;;;;;32.00;33.20;101559.22;5135976;27;20122;-45
2022/07/19 09:50:14;;;;;;;16.92;5.72;;;;;;;32.16;32.67;101554.00;5134942;27;20370;-45
2022/07/19 09:52:40;;;;;;;14.68;5.72;;;;;;;32.26;31.93;101556.25;5135632;27;20098;-45
2022/07/19 09:55:07;;;;;;;14.80;5.40;;;;;;;32.53;32.96;101550.44;5135504;27;20073;-44
2022/07/19 09:57:39;;;;;;;11.73;5.25;;;;;;;32.68;32.25;101557.63;5134705;27;20023;-47
2022/07/19 10:00:06;;;;;;;11.73;5.20;;;;;;;32.70;30.56;101555.72;5135380;27;20485;-44
2022/07/19 10:02:35;;;;;;;;;;;;;;;32.85;32.44;101555.88;5135821;27;20538;-48
2022/07/19 10:05:01;;;;;;;16.80;5.10;;;;;;;33.15;30.02;101548.03;5134788;27;19946;-49
2022/07/19 10:07:27;;;;;;;18.30;4.95;;;;;;;33.47;31.25;101548.94;5135369;27;20015;-45
2022/07/19 10:09:53;;;;;;;14.80;5.03;;;;;;;33.55;29.00;101550.31;5135206;27;20038;-45
2022/07/19 10:12:18;;;;;;;11.80;5.13;;;;;;;33.98;28.33;101542.50;5134277;27;20296;-49
2022/07/19 10:14:44;;;;;;;12.37;4.90;;;;;;;34.18;27.31;101544.03;5134918;27;20378;-48
2022/07/19 10:17:35;;;;;;;11.67;5.30;;;;;;;34.44;29.94;101544.31;5134522;27;20148;-45
2022/07/19 10:20:01;;;;;;;11.63;4.72;;;;;;;35.10;28.68;101542.91;5123666;27;20067;-45
2022/07/19 10:22:27;;;;;;;17.83;5.97;;;;;;;35.14;26.69;101540.03;5134945;27;20050;-47
2022/07/19 10:24:53;;;;;;;16.07;5.30;;;;;;;35.19;25.96;101543.28;5134469;27;20028;-45
2022/07/19 10:27:35;;;;;;;19.65;6.18;;;;;;;35.88;26.53;101537.94;5134823;27;20514;-49
2022/07/19 10:30:12;;;;;;;10.27;5.07;;;;;;;36.90;26.19;101539.91;5134995;27;20023;-49
2022/07/19 10:32:46;;;;;;;17.00;5.03;;;;;;;37.56;25.25;101533.38;5134016;27;20080;-47
2022/07/19 10:35:20;;;;;;;14.82;5.05;;;;;;;38.41;24.09;101535.06;5134840;27;20411;-45
2022/07/19 10:38:02;;;;;;;11.35;4.85;;;;;;;38.53;21.34;101530.56;5134864;27;20027;-44
2022/07/19 10:40:51;;;;;;;14.60;5.00;;;;;;;39.21;23.65;101527.88;5134392;27;20039;-47
2022/07/19 10:43:18;;;;;;;12.23;4.47;;;;;;;39.14;20.75;101521.25;5134635;27;20058;-45
2022/07/19 10:46:03;;;;;;;8.38;4.30;;;;;;;39.75;21.53;101525.28;5133866;27;20529;-46
2022/07/19 10:48:38;;;;;;;11.53;4.23;;;;;;;39.95;21.41;101510.94;5134409;27;20462;-45
2022/07/19 10:51:04;;;;;;;11.90;4.70;;;;;;;40.20;19.02;101511.56;5134531;27;20080;-47
2022/07/19 10:53:42;;;;;;;10.20;4.37;;;;;;;40.43;20.67;101514.13;5133549;27;20288;-45
2022/07/19 10:56:22;;;;;;;20.88;7.57;;;;;;;41.31;20.64;101509.84;5134321;27;20481;-45
2022/07/19 10:58:50;;;;;;;10.77;4.80;;;;;;;41.55;18.25;101510.47;5134585;27;20030;-46
2022/07/19 11:01:20;;;;;;;12.80;4.30;;;;;;;42.04;17.76;101510.44;5133346;27;20503;-47
2022/07/19 11:03:47;;;;;;;17.40;4.07;;;;;;;42.31;16.32;101509.69;5134341;27;20026;-45
2022/07/19 11:06:24;;;;;;;14.40;3.78;;;;;;;41.94;18.20;101505.91;5133395;27;20098;-45
2022/07/19 11:08:54;;;;;;;13.20;3.72;;;;;;;41.70;16.24;101502.78;5134271;27;20472;-49
2022/07/19 11:11:19;;;;;;;7.05;3.85;;;;;;;41.67;16.63;101495.81;5133934;27;20043;-45